Time;durP1;ratioP1;P1;durP2;ratioP2;P2;SDS_P1;SDS_P2;PMS_P1;PMS_P2;Temp;Humidity;BMP_temperature;BMP_pressure;BME280_temperature;BME280_humidity;BME280_pressure;Samples;Min_cycle;Max_cycle;Signal;HPM_P1;HPM_P2
2021/05/12 00:02:12;;;;;;;14.57;12.57;;;11.70;99.90;;;;;;4806055;29;20190;-80
2021/05/12 00:04:37;;;;;;;15.87;11.03;;;11.70;99.90;;;;;;4805670;29;20217;-79
2021/05/12 00:07:03;;;;;;;21.80;11.60;;;11.60;99.90;;;;;;4805972;29;20598;-79
2021/05/12 00:09:28;;;;;;;15.90;12.17;;;11.80;99.90;;;;;;4806114;29;20186;-78
2021/05/12 00:11:54;;;;;;;16.10;12.33;;;11.70;99.90;;;;;;4835055;29;20303;-79
2021/05/12 00:14:20;;;;;;;20.73;11.90;;;11.90;99.90;;;;;;4819642;29;20185;-80
2021/05/12 00:16:46;;;;;;;20.20;12.10;;;11.90;99.90;;;;;;4805821;29;20182;-78
2021/05/12 00:19:11;;;;;;;15.83;12.00;;;11.80;99.90;;;;;;4805927;29;20186;-80
2021/05/12 00:21:43;;;;;;;12.80;10.67;;;11.80;99.90;;;;;;4805987;29;20420;-80
2021/05/12 00:24:09;;;;;;;13.83;10.77;;;11.80;99.90;;;;;;4805594;29;20187;-78
2021/05/12 00:26:37;;;;;;;14.13;11.30;;;11.80;99.90;;;;;;4805733;29;20840;-79
2021/05/12 00:29:08;;;;;;;14.65;10.40;;;11.80;99.90;;;;;;4804514;29;20424;-80
2021/05/12 00:31:34;;;;;;;19.77;11.27;;;11.80;99.90;;;;;;4805966;29;20194;-80
2021/05/12 00:34:00;;;;;;;17.80;10.30;;;11.80;99.90;;;;;;4805814;29;20214;-79
2021/05/12 00:36:26;;;;;;;11.90;10.73;;;11.80;99.90;;;;;;4805507;29;20576;-80
2021/05/12 00:38:53;;;;;;;14.87;10.47;;;11.70;99.90;;;;;;4805763;29;20511;-79
2021/05/12 00:41:18;;;;;;;11.07;9.60;;;11.70;99.90;;;;;;4805719;29;20432;-80
2021/05/12 00:43:44;;;;;;;12.13;9.27;;;11.60;99.90;;;;;;4806001;29;20423;-80
2021/05/12 00:46:10;;;;;;;16.00;9.90;;;11.70;99.90;;;;;;4805486;29;20821;-81
2021/05/12 00:48:38;;;;;;;20.20;10.30;;;11.80;99.90;;;;;;4805876;29;20468;-80
2021/05/12 00:51:04;;;;;;;18.45;10.70;;;11.70;99.90;;;;;;4805788;29;20237;-80
2021/05/12 00:53:30;;;;;;;14.27;8.97;;;11.70;99.90;;;;;;4805816;29;20585;-80
2021/05/12 00:55:56;;;;;;;15.83;10.30;;;11.70;99.90;;;;;;4805267;29;20443;-81
2021/05/12 00:58:21;;;;;;;16.13;10.50;;;11.70;99.90;;;;;;4805566;29;20202;-80
2021/05/12 01:00:47;;;;;;;16.03;9.90;;;11.70;99.90;;;;;;4805575;29;20206;-80
2021/05/12 01:03:13;;;;;;;11.20;9.17;;;11.70;99.90;;;;;;4805488;29;20644;-80
2021/05/12 01:05:58;;;;;;;11.70;9.50;;;11.80;99.90;;;;;;4805147;29;20726;-81
2021/05/12 01:08:24;;;;;;;14.60;10.70;;;11.70;99.90;;;;;;4836620;29;20439;-81
2021/05/12 01:10:50;;;;;;;14.97;10.50;;;11.80;99.90;;;;;;4808796;29;20208;-80
2021/05/12 01:13:15;;;;;;;16.30;10.43;;;11.80;99.90;;;;;;4808671;29;20224;-81
2021/05/12 01:15:42;;;;;;;13.43;9.67;;;11.80;99.90;;;;;;4808284;29;20202;-81
2021/05/12 01:18:13;;;;;;;15.32;9.60;;;11.80;99.90;;;;;;4808637;29;20596;-81
2021/05/12 01:20:55;;;;;;;10.70;8.40;;;11.70;99.90;;;;;;4808628;29;20194;-80
2021/05/12 01:23:25;;;;;;;14.07;9.00;;;11.70;99.90;;;;;;4808225;29;20208;-81
2021/05/12 01:25:53;;;;;;;14.07;9.15;;;11.70;99.90;;;;;;4808127;29;20258;-81
2021/05/12 01:28:21;;;;;;;17.70;10.73;;;11.70;99.90;;;;;;4808541;29;20225;-80
2021/05/12 01:30:58;;;;;;;13.15;8.73;;;11.70;99.90;;;;;;4808521;29;20435;-81
2021/05/12 01:33:25;;;;;;;10.93;9.10;;;11.60;99.90;;;;;;4808442;29;20300;-81
2021/05/12 01:35:51;;;;;;;13.90;9.07;;;11.60;99.90;;;;;;4807913;29;20206;-81
2021/05/12 01:38:17;;;;;;;11.63;9.17;;;11.60;99.90;;;;;;4808412;29;20246;-81
2021/05/12 01:40:43;;;;;;;10.80;9.70;;;11.70;99.90;;;;;;4808261;29;20178;-81
2021/05/12 01:43:08;;;;;;;14.93;9.68;;;11.60;99.90;;;;;;4808341;29;20201;-81
2021/05/12 01:45:34;;;;;;;11.27;8.37;;;11.60;99.90;;;;;;4807632;29;20214;-79
2021/05/12 01:48:03;;;;;;;15.63;10.47;;;11.60;99.90;;;;;;4808137;29;20190;-79
2021/05/12 01:50:28;;;;;;;13.97;9.10;;;11.60;99.90;;;;;;4808371;29;20427;-79
2021/05/12 01:52:54;;;;;;;20.03;10.03;;;11.60;99.90;;;;;;4807945;29;21008;-80
2021/05/12 01:55:19;;;;;;;12.47;8.97;;;11.70;99.90;;;;;;4807685;29;20206;-79
2021/05/12 01:57:45;;;;;;;12.00;10.40;;;11.70;99.90;;;;;;4807892;29;20206;-79
2021/05/12 02:00:24;;;;;;;13.03;9.87;;;11.70;99.90;;;;;;4807904;29;20262;-79
2021/05/12 02:02:51;;;;;;;11.82;9.63;;;11.70;99.90;;;;;;4808119;29;20186;-79
2021/05/12 02:05:17;;;;;;;13.48;8.93;;;11.70;99.90;;;;;;4807656;29;20625;-79
2021/05/12 02:07:44;;;;;;;16.53;10.50;;;11.70;99.90;;;;;;4807711;29;20195;-79
2021/05/12 02:10:10;;;;;;;15.77;9.00;;;11.60;99.90;;;;;;4807777;29;20432;-79
2021/05/12 02:12:35;;;;;;;14.07;9.50;;;11.60;99.90;;;;;;4807759;29;20479;-80
2021/05/12 02:15:01;;;;;;;14.50;10.17;;;11.70;99.90;;;;;;4807354;29;20444;-78
2021/05/12 02:17:27;;;;;;;11.40;8.77;;;11.70;99.90;;;;;;4836661;29;20247;-79
2021/05/12 02:19:52;;;;;;;11.80;9.53;;;11.80;99.90;;;;;;4836082;29;21079;-80
2021/05/12 02:22:18;;;;;;;11.80;10.13;;;11.80;99.90;;;;;;4807511;29;20194;-79
2021/05/12 02:24:45;;;;;;;14.83;10.10;;;11.80;99.90;;;;;;4807090;29;20227;-79
2021/05/12 02:27:10;;;;;;;14.60;10.37;;;11.70;99.90;;;;;;4807413;29;20205;-79
2021/05/12 02:29:36;;;;;;;13.23;9.63;;;11.60;99.90;;;;;;4807311;29;20447;-79
2021/05/12 02:32:02;;;;;;;15.67;10.27;;;11.70;99.90;;;;;;4836427;29;20232;-79
2021/05/12 02:34:27;;;;;;;22.43;11.37;;;11.70;99.90;;;;;;4807080;29;20202;-79
2021/05/12 02:36:53;;;;;;;12.67;10.20;;;11.70;99.90;;;;;;4807305;29;20190;-79
2021/05/12 02:39:19;;;;;;;16.80;9.47;;;11.80;99.90;;;;;;4807322;29;20656;-80
2021/05/12 02:41:44;;;;;;;15.20;9.80;;;11.80;99.90;;;;;;4807198;29;20194;-80
2021/05/12 02:44:10;;;;;;;13.97;11.50;;;11.80;99.90;;;;;;4806915;29;20190;-80
2021/05/12 02:46:36;;;;;;;19.47;11.70;;;11.80;99.90;;;;;;4807114;29;20214;-80
2021/05/12 02:49:02;;;;;;;14.73;11.07;;;11.80;99.90;;;;;;4807077;29;20194;-80
2021/05/12 02:51:27;;;;;;;16.73;9.80;;;11.90;99.90;;;;;;4807234;29;20191;-80
2021/05/12 02:53:53;;;;;;;14.40;10.13;;;11.90;99.90;;;;;;4806868;29;20477;-80
2021/05/12 02:56:19;;;;;;;16.20;10.30;;;11.90;99.90;;;;;;4806661;29;20219;-80
2021/05/12 02:58:44;;;;;;;15.27;10.50;;;11.90;99.90;;;;;;4806952;29;20198;-80
2021/05/12 03:01:10;;;;;;;15.43;9.27;;;11.90;99.90;;;;;;4806960;29;20607;-80
2021/05/12 03:03:36;;;;;;;17.10;11.03;;;11.80;99.90;;;;;;4806899;29;20692;-80
2021/05/12 03:06:03;;;;;;;16.00;11.10;;;11.80;99.90;;;;;;4806436;29;20258;-80
2021/05/12 03:08:29;;;;;;;12.05;10.82;;;11.70;99.90;;;;;;4806706;29;20997;-79
2021/05/12 03:10:54;;;;;;;15.50;11.30;;;11.80;99.90;;;;;;4806668;29;20269;-79
2021/05/12 03:13:20;;;;;;;15.40;10.20;;;11.80;99.90;;;;;;4835868;29;20348;-79
2021/05/12 03:15:46;;;;;;;19.07;11.07;;;11.80;99.90;;;;;;4806339;29;20198;-79
2021/05/12 03:18:11;;;;;;;13.80;10.43;;;11.80;99.90;;;;;;4806540;29;20217;-79
2021/05/12 03:20:37;;;;;;;15.63;9.67;;;11.90;99.90;;;;;;4835539;29;20589;-80
2021/05/12 03:23:03;;;;;;;15.87;10.67;;;11.90;99.90;;;;;;4806476;29;20553;-79
2021/05/12 03:25:29;;;;;;;16.60;10.83;;;11.80;99.90;;;;;;4806137;29;20206;-79
2021/05/12 03:27:56;;;;;;;17.63;11.37;;;11.70;99.90;;;;;;4806447;29;20443;-80
2021/05/12 03:30:33;;;;;;;14.07;8.65;;;11.80;99.90;;;;;;4805611;29;20427;-80
2021/05/12 03:33:00;;;;;;;12.02;8.90;;;11.80;99.90;;;;;;4806422;29;20275;-80
2021/05/12 03:35:26;;;;;;;17.50;9.80;;;11.70;99.90;;;;;;4805983;29;20292;-79
2021/05/12 03:37:52;;;;;;;12.60;10.27;;;11.70;99.90;;;;;;4806410;29;20507;-80
2021/05/12 03:40:18;;;;;;;22.30;12.10;;;11.70;99.90;;;;;;4806359;29;20869;-80
2021/05/12 03:42:45;;;;;;;11.53;10.33;;;11.70;99.90;;;;;;4806400;29;20235;-80
2021/05/12 03:45:11;;;;;;;13.23;10.07;;;11.60;99.90;;;;;;4835056;29;20526;-81
2021/05/12 03:47:37;;;;;;;12.60;10.90;;;11.60;99.90;;;;;;4806128;29;20451;-80
2021/05/12 03:50:07;;;;;;;14.67;11.70;;;11.60;99.90;;;;;;4806427;29;20557;-79
2021/05/12 03:52:33;;;;;;;20.77;11.05;;;11.60;99.90;;;;;;4806024;29;20683;-79
2021/05/12 03:54:59;;;;;;;16.03;11.40;;;11.60;99.90;;;;;;4805842;29;20270;-80
2021/05/12 03:57:25;;;;;;;18.63;12.13;;;11.60;99.90;;;;;;4806154;29;20202;-80
2021/05/12 03:59:50;;;;;;;13.83;10.97;;;11.60;99.90;;;;;;4806026;29;20753;-80
2021/05/12 04:02:16;;;;;;;17.73;11.57;;;11.60;99.90;;;;;;4806113;29;20190;-81
2021/05/12 04:04:42;;;;;;;16.67;12.03;;;11.60;99.90;;;;;;4805624;29;20566;-80
2021/05/12 04:07:08;;;;;;;18.63;13.37;;;11.50;99.90;;;;;;4806433;29;20234;-81
2021/05/12 04:09:34;;;;;;;17.48;11.02;;;11.30;99.90;;;;;;4806182;29;20599;-80
2021/05/12 04:11:59;;;;;;;24.13;14.20;;;11.30;99.90;;;;;;4805933;29;20270;-80
2021/05/12 04:14:25;;;;;;;19.53;11.90;;;11.30;99.90;;;;;;4805586;29;20459;-80
2021/05/12 04:16:52;;;;;;;19.33;13.30;;;11.40;99.90;;;;;;4805785;29;20190;-80
2021/05/12 04:19:19;;;;;;;22.43;13.83;;;11.40;99.90;;;;;;4805962;29;20209;-80
2021/05/12 04:21:45;;;;;;;17.23;13.00;;;11.40;99.90;;;;;;4805963;29;20431;-80
2021/05/12 04:24:11;;;;;;;21.90;12.50;;;11.50;99.90;;;;;;4805555;29;20424;-80
2021/05/12 04:26:36;;;;;;;18.57;13.33;;;11.50;99.90;;;;;;4805829;29;20457;-81
2021/05/12 04:29:04;;;;;;;25.53;13.10;;;11.60;99.90;;;;;;4805735;29;20441;-81
2021/05/12 04:31:30;;;;;;;23.10;11.38;;;11.60;99.90;;;;;;4806155;29;20229;-80
2021/05/12 04:33:55;;;;;;;16.03;12.43;;;11.60;99.90;;;;;;4805751;29;20222;-80
2021/05/12 04:36:21;;;;;;;24.87;13.90;;;11.60;99.90;;;;;;4805502;29;20806;-81
2021/05/12 04:38:47;;;;;;;21.80;13.30;;;11.60;99.90;;;;;;4805658;29;20185;-80
2021/05/12 04:41:12;;;;;;;19.13;13.17;;;11.60;99.90;;;;;;4805877;29;20190;-81
2021/05/12 04:43:38;;;;;;;20.40;13.50;;;11.60;99.90;;;;;;4809207;29;20194;-81
2021/05/12 04:46:03;;;;;;;23.17;14.30;;;11.60;99.90;;;;;;4808787;29;20266;-81
2021/05/12 04:48:30;;;;;;;25.40;14.40;;;11.60;99.90;;;;;;4809079;29;20292;-80
2021/05/12 04:50:55;;;;;;;18.20;12.60;;;11.50;99.90;;;;;;4809056;29;20660;-80
2021/05/12 04:53:21;;;;;;;22.07;13.80;;;11.50;99.90;;;;;;4838461;29;20238;-81
2021/05/12 04:55:46;;;;;;;22.83;14.37;;;11.60;99.90;;;;;;4837951;29;20270;-80
2021/05/12 04:58:12;;;;;;;27.27;15.03;;;11.50;99.90;;;;;;4808969;29;20229;-80
2021/05/12 05:00:38;;;;;;;19.63;12.60;;;11.50;99.90;;;;;;4808789;29;20643;-80
2021/05/12 05:03:06;;;;;;;21.90;14.07;;;11.50;99.90;;;;;;4808930;29;20605;-80
2021/05/12 05:05:32;;;;;;;23.30;14.63;;;11.50;99.90;;;;;;4807194;29;20466;-81
2021/05/12 05:07:57;;;;;;;22.00;12.97;;;11.50;99.90;;;;;;4808839;29;20518;-81
2021/05/12 05:10:23;;;;;;;21.50;15.50;;;11.60;99.90;;;;;;4808637;29;20198;-81
2021/05/12 05:12:49;;;;;;;21.20;14.23;;;11.60;99.90;;;;;;4808654;29;20258;-80
2021/05/12 05:15:16;;;;;;;23.60;14.47;;;11.60;99.90;;;;;;4808184;29;20454;-81
2021/05/12 05:17:42;;;;;;;28.85;15.68;;;11.70;99.90;;;;;;4807453;29;20457;-80
2021/05/12 05:20:10;;;;;;;21.43;14.87;;;11.60;99.90;;;;;;4808652;29;20190;-79
2021/05/12 05:22:36;;;;;;;17.47;13.80;;;11.60;99.90;;;;;;4808576;29;20495;-79
2021/05/12 05:25:02;;;;;;;22.23;14.77;;;11.60;99.90;;;;;;4808067;29;20443;-79
2021/05/12 05:27:28;;;;;;;24.70;14.63;;;11.60;99.90;;;;;;4808381;29;20186;-79
2021/05/12 05:29:54;;;;;;;23.80;15.23;;;11.70;99.90;;;;;;4808401;29;20202;-79
2021/05/12 05:32:19;;;;;;;20.00;13.87;;;11.70;99.90;;;;;;4808312;29;20679;-79
2021/05/12 05:34:45;;;;;;;23.47;14.27;;;11.90;99.90;;;;;;4807955;29;20205;-80
2021/05/12 05:37:11;;;;;;;21.30;14.60;;;11.80;99.90;;;;;;4808120;29;20644;-80
2021/05/12 05:39:36;;;;;;;19.50;13.43;;;11.80;99.90;;;;;;4807992;29;20179;-79
2021/05/12 05:42:23;;;;;;;17.07;12.80;;;11.90;99.90;;;;;;4837407;29;20655;-79
2021/05/12 05:44:49;;;;;;;13.90;11.57;;;11.90;99.90;;;;;;4807721;29;20722;-80
2021/05/12 05:47:15;;;;;;;20.73;12.30;;;12.00;99.90;;;;;;4808254;29;20430;-80
2021/05/12 05:49:40;;;;;;;17.10;11.90;;;12.10;99.90;;;;;;4808193;29;20423;-81
2021/05/12 05:52:07;;;;;;;19.17;11.23;;;12.10;99.90;;;;;;4808125;29;20796;-78
2021/05/12 05:54:33;;;;;;;17.30;10.63;;;12.00;99.90;;;;;;4807019;29;20361;-78
2021/05/12 05:57:14;;;;;;;15.70;8.17;;;12.00;99.90;;;;;;4807940;29;20984;-78
2021/05/12 05:59:39;;;;;;;10.57;6.97;;;12.10;99.90;;;;;;4833214;29;20427;-79
2021/05/12 06:02:06;;;;;;;17.90;6.13;;;12.00;99.90;;;;;;4807978;29;20436;-79
2021/05/12 06:04:31;;;;;;;8.10;4.90;;;12.00;99.90;;;;;;4807463;29;20235;-79
2021/05/12 06:06:57;;;;;;;11.57;6.53;;;12.00;99.90;;;;;;4807968;29;20420;-79
2021/05/12 06:09:23;;;;;;;12.17;5.07;;;11.90;99.90;;;;;;4807924;29;20253;-78
2021/05/12 06:11:50;;;;;;;11.90;5.37;;;11.90;99.90;;;;;;4807650;29;20189;-80
2021/05/12 06:14:16;;;;;;;7.70;4.55;;;11.90;99.90;;;;;;4807038;29;20483;-79
2021/05/12 06:16:42;;;;;;;8.60;5.27;;;11.90;99.90;;;;;;4807236;29;20266;-79
2021/05/12 06:19:08;;;;;;;11.30;5.00;;;11.90;99.90;;;;;;4807360;29;20511;-78
2021/05/12 06:21:33;;;;;;;6.00;4.30;;;12.00;99.90;;;;;;4807152;29;20838;-78
2021/05/12 06:23:59;;;;;;;10.33;5.80;;;12.00;99.90;;;;;;4806890;29;20211;-79
2021/05/12 06:26:24;;;;;;;12.90;4.70;;;12.20;99.90;;;;;;4806802;29;20217;-80
2021/05/12 06:28:50;;;;;;;9.07;5.23;;;12.20;99.90;;;;;;4807381;29;20708;-79
2021/05/12 06:31:16;;;;;;;7.87;4.87;;;12.20;99.90;;;;;;4807211;29;20335;-78
2021/05/12 06:33:47;;;;;;;6.87;5.53;;;12.30;99.90;;;;;;4806751;29;20217;-79
2021/05/12 06:36:14;;;;;;;7.67;5.83;;;12.40;99.90;;;;;;4806885;29;20217;-78
2021/05/12 06:38:40;;;;;;;8.57;5.03;;;12.40;99.90;;;;;;4807679;29;20781;-79
2021/05/12 06:41:06;;;;;;;6.03;4.90;;;12.30;99.90;;;;;;4835910;29;20431;-79
2021/05/12 06:43:32;;;;;;;10.65;5.05;;;12.30;99.90;;;;;;4836315;29;20266;-78
2021/05/12 06:45:58;;;;;;;8.20;4.90;;;12.40;99.90;;;;;;4806702;29;20209;-79
2021/05/12 06:48:24;;;;;;;9.57;5.50;;;12.40;99.90;;;;;;4807157;29;20189;-78
2021/05/12 06:50:49;;;;;;;6.53;5.03;;;12.40;99.90;;;;;;4836120;29;20428;-78
2021/05/12 06:53:25;;;;;;;5.70;4.33;;;12.50;99.90;;;;;;4807006;29;20213;-79
2021/05/12 06:55:50;;;;;;;8.10;4.67;;;12.50;99.90;;;;;;4806326;29;20680;-81
2021/05/12 06:58:16;;;;;;;7.53;5.00;;;12.60;99.90;;;;;;4806820;29;20458;-80
2021/05/12 07:00:42;;;;;;;7.00;4.70;;;12.60;99.90;;;;;;4806897;29;20217;-79
2021/05/12 07:03:07;;;;;;;13.53;5.13;;;12.50;99.90;;;;;;4836240;29;20228;-79
2021/05/12 07:05:33;;;;;;;11.33;5.10;;;12.70;99.90;;;;;;4806325;29;20229;-80
2021/05/12 07:07:58;;;;;;;8.33;5.20;;;12.70;99.90;;;;;;4806630;29;20277;-80
2021/05/12 07:10:24;;;;;;;8.43;4.83;;;12.80;99.90;;;;;;4806845;29;20247;-80
2021/05/12 07:12:49;;;;;;;14.13;5.47;;;12.90;99.90;;;;;;4806287;29;20246;-79
2021/05/12 07:15:15;;;;;;;11.10;5.00;;;12.90;99.90;;;;;;4806404;29;20240;-79
2021/05/12 07:17:41;;;;;;;11.23;5.20;;;12.90;99.90;;;;;;4806686;29;20183;-79
2021/05/12 07:20:08;;;;;;;11.20;4.87;;;13.00;99.90;;;;;;4806524;29;20193;-80
2021/05/12 07:22:34;;;;;;;12.67;5.87;;;12.90;99.90;;;;;;4806605;29;20214;-79
2021/05/12 07:25:00;;;;;;;7.07;4.73;;;13.00;99.90;;;;;;4835211;29;20896;-79
2021/05/12 07:27:26;;;;;;;7.20;4.90;;;12.80;99.90;;;;;;4806521;29;20190;-80
2021/05/12 07:29:52;;;;;;;9.13;4.60;;;13.00;99.90;;;;;;4806455;29;20503;-79
2021/05/12 07:32:18;;;;;;;9.90;5.70;;;12.90;99.90;;;;;;4806113;29;20487;-77
2021/05/12 07:34:44;;;;;;;8.70;4.90;;;13.00;99.90;;;;;;4806002;29;20566;-79
2021/05/12 07:37:10;;;;;;;8.73;4.60;;;13.00;99.90;;;;;;4806188;29;20511;-79
2021/05/12 07:39:36;;;;;;;8.90;5.37;;;13.10;99.90;;;;;;4835433;29;20183;-79
2021/05/12 07:42:06;;;;;;;7.07;4.43;;;12.90;99.90;;;;;;4806352;29;20311;-80
2021/05/12 07:44:31;;;;;;;12.70;5.63;;;13.00;99.90;;;;;;4805789;29;20785;-79
2021/05/12 07:46:57;;;;;;;6.93;4.10;;;13.20;99.90;;;;;;4835331;29;20514;-80
2021/05/12 07:49:23;;;;;;;6.50;4.10;;;13.20;99.90;;;;;;4806459;29;20257;-80
2021/05/12 07:51:48;;;;;;;4.90;4.27;;;13.40;99.90;;;;;;4806173;29;20182;-78
2021/05/12 07:54:14;;;;;;;7.77;4.80;;;13.40;99.90;;;;;;4805923;29;20642;-80
2021/05/12 07:56:39;;;;;;;8.20;4.97;;;13.30;99.90;;;;;;4805930;29;20206;-79
2021/05/12 07:59:05;;;;;;;8.93;4.83;;;13.50;99.90;;;;;;4806053;29;20606;-80
2021/05/12 08:01:36;;;;;;;8.17;4.27;;;13.60;99.90;;;;;;4806086;29;20216;-80
2021/05/12 08:04:01;;;;;;;7.73;4.43;;;13.60;99.90;;;;;;4835106;29;20190;-80
2021/05/12 08:06:27;;;;;;;7.50;4.10;;;13.80;99.90;;;;;;4804991;29;20879;-80
2021/05/12 08:08:53;;;;;;;11.57;4.83;;;13.70;99.90;;;;;;4805533;29;20620;-79
2021/05/12 08:11:21;;;;;;;8.77;4.70;;;13.80;99.90;;;;;;4805417;29;20194;-79
2021/05/12 08:13:50;;;;;;;14.97;5.30;;;13.80;99.90;;;;;;4805536;29;20221;-80
2021/05/12 08:16:16;;;;;;;7.73;4.20;;;14.00;99.90;;;;;;4805344;29;20781;-77
2021/05/12 08:18:41;;;;;;;6.70;4.47;;;14.20;99.90;;;;;;4830580;29;20428;-76
2021/05/12 08:21:07;;;;;;;6.37;4.07;;;14.30;99.90;;;;;;4830817;29;20424;-78
2021/05/12 08:23:33;;;;;;;7.90;3.90;;;14.30;99.90;;;;;;4809085;29;20546;-78
2021/05/12 08:25:59;;;;;;;7.43;3.73;;;14.60;99.90;;;;;;4808751;29;20837;-79
2021/05/12 08:28:25;;;;;;;9.93;4.07;;;14.70;99.90;;;;;;4808977;29;21012;-79
2021/05/12 08:30:51;;;;;;;11.80;4.53;;;14.50;99.90;;;;;;4808842;29;20455;-79
2021/05/12 08:33:17;;;;;;;7.43;5.03;;;14.20;99.90;;;;;;4808822;29;20505;-79
2021/05/12 08:35:45;;;;;;;10.10;4.37;;;14.60;99.90;;;;;;4808300;29;20210;-79
2021/05/12 08:38:17;;;;;;;6.53;3.67;;;14.60;99.90;;;;;;4809395;29;20210;-79
2021/05/12 08:40:45;;;;;;;5.50;4.83;;;14.90;99.90;;;;;;4809137;29;20405;-79
2021/05/12 08:43:12;;;;;;;6.60;3.80;;;14.80;99.90;;;;;;4809210;29;20424;-77
2021/05/12 08:45:38;;;;;;;8.90;4.50;;;15.10;99.90;;;;;;4808814;29;20425;-76
2021/05/12 08:48:10;;;;;;;7.37;4.63;;;15.20;99.90;;;;;;4809066;29;20398;-77
2021/05/12 08:50:36;;;;;;;7.87;4.80;;;15.30;99.90;;;;;;4809073;29;20398;-76
2021/05/12 08:53:03;;;;;;;10.27;4.70;;;15.40;99.90;;;;;;4808861;29;20437;-75
2021/05/12 08:55:30;;;;;;;5.73;4.33;;;15.30;99.90;;;;;;4808593;29;20439;-77
2021/05/12 08:57:56;;;;;;;10.27;4.87;;;15.10;99.90;;;;;;4808762;29;20941;-77
2021/05/12 09:00:22;;;;;;;13.30;5.37;;;14.70;99.90;;;;;;4808900;29;20427;-76
2021/05/12 09:02:48;;;;;;;8.03;5.03;;;15.00;99.90;;;;;;4808981;29;20345;-76
2021/05/12 09:05:14;;;;;;;9.67;5.50;;;15.30;99.90;;;;;;4837561;29;20216;-76
2021/05/12 09:07:40;;;;;;;9.27;4.70;;;15.50;99.90;;;;;;4807772;29;20846;-76
2021/05/12 09:10:07;;;;;;;7.17;5.20;;;15.80;99.90;;;;;;4808888;29;20490;-77
2021/05/12 09:12:42;;;;;;;8.67;5.23;;;16.00;99.90;;;;;;4808604;29;20221;-77
2021/05/12 09:15:09;;;;;;;9.20;4.63;;;16.20;99.90;;;;;;4808034;29;20965;-76
2021/05/12 09:17:40;;;;;;;11.23;5.03;;;16.10;99.90;;;;;;4808516;29;20403;-76
2021/05/12 09:20:40;;;;;;;5.87;4.87;;;16.30;99.90;;;;;;4807517;29;20510;-76
2021/05/12 09:23:09;;;;;;;7.83;4.33;;;17.00;99.90;;;;;;4837633;29;20407;-77
2021/05/12 09:25:38;;;;;;;10.57;4.70;;;16.50;99.90;;;;;;4807970;29;20456;-76
2021/05/12 09:28:13;;;;;;;6.07;5.47;;;16.90;99.90;;;;;;4807276;29;20840;-76
2021/05/12 09:30:48;;;;;;;9.63;4.80;;;16.80;99.90;;;;;;4808333;29;20438;-77
2021/05/12 09:33:27;;;;;;;9.80;5.40;;;16.90;99.90;;;;;;4808354;29;20479;-77
2021/05/12 09:35:54;;;;;;;6.40;5.70;;;17.10;99.90;;;;;;4836775;29;20504;-77
2021/05/12 09:38:22;;;;;;;6.73;5.17;;;17.10;99.90;;;;;;4808259;29;20399;-77
2021/05/12 09:41:19;;;;;;;10.50;6.40;;;17.40;99.90;;;;;;4808199;29;20424;-78
2021/05/12 09:43:49;;;;;;;8.27;5.70;;;17.30;99.90;;;;;;4806986;29;20440;-75
2021/05/12 09:46:36;;;;;;;8.13;5.50;;;17.50;99.90;;;;;;4807823;29;20493;-76
2021/05/12 09:49:01;;;;;;;10.27;6.03;;;17.20;99.90;;;;;;4808229;29;20543;-78
2021/05/12 09:51:29;;;;;;;6.73;6.00;;;17.10;99.90;;;;;;4808063;29;20519;-77
2021/05/12 09:54:13;;;;;;;14.50;5.10;;;16.50;99.90;;;;;;4837448;29;20214;-76
2021/05/12 09:56:49;;;;;;;8.20;4.83;;;16.70;99.90;;;;;;4806832;29;20855;-76
2021/05/12 09:59:26;;;;;;;14.80;10.40;;;16.70;99.90;;;;;;4807573;29;20431;-77
2021/05/12 10:01:57;;;;;;;9.73;6.83;;;16.40;99.90;;;;;;4837235;29;20433;-77
2021/05/12 10:05:00;;;;;;;9.23;4.97;;;16.70;99.90;;;;;;4807597;29;20923;-76
2021/05/12 10:07:19;;;;;;;5.03;4.27;;;17.10;99.90;;;;;;4808375;29;20410;-77
2021/05/12 10:09:46;;;;;;;10.80;5.37;;;17.00;99.90;;;;;;4807806;29;20452;-77
2021/05/12 10:12:15;;;;;;;8.83;5.23;;;17.70;99.90;;;;;;4836761;29;20652;-77
2021/05/12 10:14:43;;;;;;;7.33;5.27;;;17.90;99.90;;;;;;4807306;29;20452;-76
2021/05/12 10:17:13;;;;;;;5.07;4.20;;;18.10;99.90;;;;;;4807769;29;20395;-76
2021/05/12 10:19:39;;;;;;;11.70;5.07;;;18.40;99.90;;;;;;4807616;29;20795;-78
2021/05/12 10:22:06;;;;;;;6.90;3.90;;;18.70;99.90;;;;;;4807677;29;20420;-77
2021/05/12 10:24:35;;;;;;;7.37;4.40;;;18.70;99.90;;;;;;4807069;29;20413;-77
2021/05/12 10:27:12;;;;;;;5.03;3.87;;;17.80;99.90;;;;;;4807443;29;20439;-77
2021/05/12 10:29:46;;;;;;;8.53;5.40;;;17.40;99.90;;;;;;4807380;29;20828;-77
2021/05/12 10:32:17;;;;;;;5.03;4.57;;;16.90;99.90;;;;;;4807450;29;20424;-76
2021/05/12 10:34:43;;;;;;;7.17;4.90;;;17.00;99.90;;;;;;4807029;29;20410;-76
2021/05/12 10:37:36;;;;;;;7.10;5.30;;;17.00;99.90;;;;;;4806892;29;20893;-77
2021/05/12 10:40:14;;;;;;;7.40;5.53;;;16.60;99.90;;;;;;4792435;29;20464;-77
2021/05/12 10:42:55;;;;;;;8.00;6.40;;;16.60;99.90;;;;;;4807201;29;20405;-78
2021/05/12 10:45:34;;;;;;;8.57;6.00;;;16.60;99.90;;;;;;4806945;29;20421;-77
2021/05/12 10:48:03;;;;;;;7.37;5.20;;;16.80;99.90;;;;;;4807287;29;20424;-76
2021/05/12 10:50:48;;;;;;;12.23;5.00;;;16.80;99.90;;;;;;4807243;29;20742;-77
2021/05/12 10:53:17;;;;;;;9.37;4.63;;;16.70;99.90;;;;;;4836146;29;20967;-78
2021/05/12 10:55:55;;;;;;;6.50;3.93;;;17.40;99.90;;;;;;4806456;29;20456;-78
2021/05/12 10:58:20;;;;;;;6.10;4.57;;;17.70;99.90;;;;;;4806833;29;20504;-76
2021/05/12 11:01:12;;;;;;;7.60;4.23;;;18.00;99.90;;;;;;4806851;29;20439;-75
2021/05/12 11:03:50;;;;;;;8.23;5.83;;;18.20;99.90;;;;;;4806782;29;20220;-78
2021/05/12 11:06:23;;;;;;;5.60;5.10;;;18.00;99.90;;;;;;4806518;29;20445;-77
2021/05/12 11:09:18;;;;;;;8.70;5.60;;;17.80;99.90;;;;;;4806946;29;20459;-77
2021/05/12 11:11:44;;;;;;;7.63;4.83;;;17.60;99.90;;;;;;4807640;29;20827;-77
2021/05/12 11:14:29;;;;;;;7.80;5.00;;;17.20;99.90;;;;;;4806429;29;20450;-77
2021/05/12 11:17:14;;;;;;;9.23;4.23;;;17.40;99.90;;;;;;4836038;29;20192;-76
2021/05/12 11:19:44;;;;;;;8.37;4.00;;;17.50;99.90;;;;;;4806726;29;20494;-77
2021/05/12 11:31:27;;;;;;;6.23;5.00;;;17.50;99.90;;;;;;4806466;29;20796;-76
2021/05/12 11:33:54;;;;;;;9.73;4.67;;;17.40;99.90;;;;;;4806265;29;20457;-77
2021/05/12 11:36:22;;;;;;;5.67;4.10;;;17.30;99.90;;;;;;4805867;29;20454;-77
2021/05/12 11:38:50;;;;;;;10.30;4.97;;;17.40;99.90;;;;;;4805176;29;20809;-77
2021/05/12 11:41:21;;;;;;;4.77;3.70;;;17.80;99.90;;;;;;4806390;29;20427;-77
2021/05/12 11:43:56;;;;;;;6.03;3.53;;;17.80;99.90;;;;;;4806111;29;20785;-76
2021/05/12 11:46:37;;;;;;;3.80;3.40;;;17.80;99.90;;;;;;4805802;29;20522;-77
2021/05/12 11:49:09;;;;;;;5.50;2.90;;;17.90;99.90;;;;;;4806014;29;20479;-77
2021/05/12 11:51:43;;;;;;;4.17;2.67;;;18.50;99.90;;;;;;4805627;29;20402;-77
2021/05/12 11:54:23;;;;;;;3.60;2.40;;;19.10;99.90;;;;;;4805526;29;20475;-77
2021/05/12 11:56:50;;;;;;;4.87;2.80;;;20.20;99.90;;;;;;4806172;29;20802;-77
2021/05/12 11:59:21;;;;;;;5.10;2.93;;;20.50;99.90;;;;;;4806383;29;20420;-77
2021/05/12 12:01:57;;;;;;;3.50;2.27;;;21.20;99.90;;;;;;4806366;29;20403;-77
2021/05/12 12:04:29;;;;;;;6.83;2.70;;;21.90;99.90;;;;;;4805700;29;20443;-77
2021/05/12 12:06:54;;;;;;;5.13;2.87;;;22.00;99.90;;;;;;4806107;29;20449;-78
2021/05/12 12:09:21;;;;;;;8.50;3.20;;;21.50;99.90;;;;;;4806315;29;20871;-77
2021/05/12 12:11:47;;;;;;;3.43;2.60;;;20.60;99.90;;;;;;4806007;29;20182;-77
2021/05/12 12:14:13;;;;;;;4.40;2.87;;;19.80;99.90;;;;;;4805719;29;20471;-77
2021/05/12 12:16:42;;;;;;;6.40;3.07;;;19.90;99.90;;;;;;4805904;29;20451;-77
2021/05/12 12:19:13;;;;;;;5.77;2.90;;;20.50;99.90;;;;;;4805751;29;20514;-77
2021/05/12 12:21:41;;;;;;;5.00;2.83;;;21.10;99.90;;;;;;4835162;29;20402;-77
2021/05/12 12:24:15;;;;;;;4.57;3.07;;;21.90;99.90;;;;;;4804387;29;20940;-78
2021/05/12 12:26:45;;;;;;;6.37;3.17;;;22.80;99.90;;;;;;4805859;29;20439;-76
2021/05/12 12:29:11;;;;;;;8.50;3.63;;;21.80;99.90;;;;;;4805491;29;20492;-77
2021/05/12 12:31:48;;;;;;;5.40;2.33;;;22.30;99.90;;;;;;4805660;29;20925;-77
2021/05/12 12:34:30;;;;;;;4.70;2.03;;;22.10;99.90;;;;;;4805444;29;20561;-77
2021/05/12 12:37:03;;;;;;;3.80;2.00;;;22.10;99.90;;;;;;4805781;29;20778;-77
2021/05/12 12:39:44;;;;;;;4.17;2.20;;;22.40;99.90;;;;;;4805930;29;20416;-77
2021/05/12 12:42:10;;;;;;;3.57;1.77;;;22.50;99.90;;;;;;4805769;29;20442;-77
2021/05/12 12:44:40;;;;;;;4.10;2.33;;;23.00;99.90;;;;;;4805221;29;20432;-79
2021/05/12 12:47:14;;;;;;;4.90;1.80;;;23.10;99.90;;;;;;4834164;29;20515;-80
2021/05/12 12:49:46;;;;;;;4.50;2.20;;;23.00;99.90;;;;;;4805987;29;20451;-81
2021/05/12 12:52:36;;;;;;;5.37;2.70;;;22.50;99.90;;;;;;4805792;29;20491;-78
2021/05/12 12:55:26;;;;;;;4.10;2.53;;;22.40;99.90;;;;;;4805445;29;20971;-79